Time;durP1;ratioP1;P1;durP2;ratioP2;P2;SDS_P1;SDS_P2;PMS_P1;PMS_P2;Temp;Humidity;BMP_temperature;BMP_pressure;BME280_temperature;BME280_humidity;BME280_pressure;Samples;Min_cycle;Max_cycle;Signal;HPM_P1;HPM_P2
2021/05/24 12:02:08;;;;;;;0.17;0.17;;;;;;;;;;5079397;27;20569;-64
2021/05/24 12:04:41;;;;;;;0.37;0.37;;;;;;;;;;5075787;28;20979;-64
2021/05/24 12:07:14;;;;;;;0.40;0.40;;;;;;;;;;5078332;28;20182;-64
2021/05/24 12:09:46;;;;;;;1.87;0.43;;;;;;;;;;5078312;28;20549;-65
2021/05/24 12:12:14;;;;;;;0.07;0.07;;;;;;;;;;5078198;28;20175;-64
2021/05/24 12:14:42;;;;;;;0.83;0.40;;;;;;;;;;5078115;28;20186;-64
2021/05/24 12:17:12;;;;;;;0.27;0.17;;;;;;;;;;5077882;28;20224;-65
2021/05/24 12:19:39;;;;;;;1.27;0.40;;;;;;;;;;5077352;28;20210;-65
2021/05/24 12:22:07;;;;;;;1.80;0.67;;;;;;;;;;5078129;28;20792;-64
2021/05/24 12:24:39;;;;;;;2.17;1.87;;;;;;;;;;5077616;28;20257;-65
2021/05/24 12:27:07;;;;;;;2.57;1.33;;;;;;;;;;5077572;28;20206;-65
2021/05/24 12:29:35;;;;;;;0.00;0.00;;;;;;;;;;5078155;28;20206;-66
2021/05/24 12:32:04;;;;;;;0.77;0.67;;;;;;;;;;5077939;28;20255;-64
2021/05/24 12:34:36;;;;;;;9.07;1.20;;;;;;;;;;5077959;28;20190;-65
2021/05/24 12:37:04;;;;;;;1.20;0.93;;;;;;;;;;5077232;28;20225;-65
2021/05/24 12:39:34;;;;;;;0.00;0.00;;;;;;;;;;5077853;28;20195;-65
2021/05/24 12:42:01;;;;;;;1.30;0.87;;;;;;;;;;5077284;28;20738;-64
2021/05/24 12:44:29;;;;;;;4.87;1.80;;;;;;;;;;5076559;28;20182;-64
2021/05/24 12:46:57;;;;;;;0.47;0.30;;;;;;;;;;5058824;28;20983;-64
2021/05/24 12:49:37;;;;;;;0.10;0.00;;;;;;;;;;5077252;28;20293;-64
2021/05/24 12:52:04;;;;;;;4.07;0.90;;;;;;;;;;5076612;28;20200;-64
2021/05/24 12:54:42;;;;;;;0.57;0.57;;;;;;;;;;5077235;28;20724;-64
2021/05/24 12:57:08;;;;;;;2.43;1.13;;;;;;;;;;5077282;28;20998;-64
2021/05/24 12:59:44;;;;;;;1.53;0.83;;;;;;;;;;5076732;28;20186;-64
2021/05/24 13:02:10;;;;;;;0.17;0.17;;;;;;;;;;5076784;28;20205;-64
2021/05/24 13:04:37;;;;;;;3.67;1.20;;;;;;;;;;5074241;28;20171;-64
2021/05/24 13:07:12;;;;;;;3.90;1.23;;;;;;;;;;5076635;28;20230;-64
2021/05/24 13:09:42;;;;;;;1.97;1.10;;;;;;;;;;5077100;28;20186;-65
2021/05/24 13:12:17;;;;;;;0.67;0.53;;;;;;;;;;5070835;28;20182;-65
2021/05/24 13:14:51;;;;;;;0.00;0.00;;;;;;;;;;5061737;28;20181;-65
2021/05/24 13:25:34;;;;;;;1.50;0.30;;;;;;;;;;5063268;28;20949;-64
2021/05/24 13:30:38;;;;;;;5.23;2.90;;;;;;;;;;5063059;28;20197;-64
2021/05/24 13:33:23;;;;;;;0.00;0.00;;;;;;;;;;5063001;28;20193;-64
2021/05/24 13:35:50;;;;;;;0.30;0.17;;;;;;;;;;5061803;28;20176;-64
2021/05/24 13:38:17;;;;;;;0.47;0.47;;;;;;;;;;5063027;28;20192;-64
2021/05/24 13:40:44;;;;;;;1.73;1.63;;;;;;;;;;5063078;28;20761;-64
2021/05/24 13:43:10;;;;;;;0.00;0.00;;;;;;;;;;5063367;28;20182;-65
2021/05/24 13:45:37;;;;;;;2.53;1.53;;;;;;;;;;5062692;28;20182;-64
2021/05/24 13:48:04;;;;;;;3.87;1.23;;;;;;;;;;5062912;28;20197;-64
2021/05/24 13:50:30;;;;;;;0.77;0.33;;;;;;;;;;5062939;28;20187;-64
2021/05/24 13:52:57;;;;;;;1.70;0.73;;;;;;;;;;5062736;28;20197;-64
2021/05/24 13:55:24;;;;;;;4.07;1.53;;;;;;;;;;5062464;28;20182;-64
2021/05/24 13:57:50;;;;;;;0.30;0.23;;;;;;;;;;5062317;28;20181;-65
2021/05/24 14:00:18;;;;;;;0.10;0.10;;;;;;;;;;5061948;28;20229;-64
2021/05/24 14:02:45;;;;;;;0.30;0.30;;;;;;;;;;5061487;28;20189;-64
2021/05/24 14:05:14;;;;;;;1.60;1.23;;;;;;;;;;5061967;28;20181;-64
2021/05/24 14:07:40;;;;;;;0.37;0.37;;;;;;;;;;5059021;28;20942;-66
2021/05/24 14:10:07;;;;;;;2.77;0.90;;;;;;;;;;5061450;28;20272;-65
2021/05/24 14:12:33;;;;;;;3.23;0.90;;;;;;;;;;5061256;28;20767;-65
2021/05/24 14:15:00;;;;;;;2.33;1.03;;;;;;;;;;5058573;28;20582;-66
2021/05/24 14:17:26;;;;;;;0.10;0.10;;;;;;;;;;5059647;28;20201;-67
2021/05/24 14:19:53;;;;;;;2.57;0.70;;;;;;;;;;5061952;28;20192;-66
2021/05/24 14:22:20;;;;;;;3.77;1.03;;;;;;;;;;5062120;28;20188;-64
2021/05/24 14:24:46;;;;;;;4.23;1.20;;;;;;;;;;5060981;28;20206;-64
2021/05/24 14:27:13;;;;;;;0.00;0.00;;;;;;;;;;5062154;28;20900;-65
2021/05/24 14:29:39;;;;;;;0.30;0.30;;;;;;;;;;5061893;28;20185;-64
2021/05/24 14:32:06;;;;;;;0.60;0.60;;;;;;;;;;5061632;28;20190;-64
2021/05/24 14:34:33;;;;;;;3.50;0.67;;;;;;;;;;5062104;28;20189;-64
2021/05/24 14:37:00;;;;;;;0.00;0.00;;;;;;;;;;5062321;28;20194;-64
2021/05/24 14:39:27;;;;;;;2.57;1.07;;;;;;;;;;5061684;28;20227;-64
2021/05/24 14:41:54;;;;;;;0.20;0.20;;;;;;;;;;5070706;28;20206;-64
2021/05/24 14:44:21;;;;;;;0.00;0.00;;;;;;;;;;5061324;28;20175;-65
2021/05/24 14:46:47;;;;;;;10.20;1.37;;;;;;;;;;5061678;28;20292;-65
2021/05/24 14:49:14;;;;;;;4.27;1.33;;;;;;;;;;5061359;28;20182;-64
2021/05/24 14:51:43;;;;;;;2.73;0.80;;;;;;;;;;5061384;28;20207;-64
2021/05/24 14:54:11;;;;;;;6.13;0.93;;;;;;;;;;5061754;28;20231;-64
2021/05/24 14:56:38;;;;;;;0.40;0.40;;;;;;;;;;5061121;28;20197;-64
2021/05/24 14:59:05;;;;;;;3.87;0.60;;;;;;;;;;5061402;28;20714;-64
2021/05/24 15:01:31;;;;;;;12.70;3.90;;;;;;;;;;5061162;28;20233;-64
2021/05/24 15:03:58;;;;;;;4.57;1.03;;;;;;;;;;5064384;28;20289;-64
2021/05/24 15:06:24;;;;;;;3.97;2.43;;;;;;;;;;5060994;28;20201;-64
2021/05/24 15:08:51;;;;;;;5.53;1.43;;;;;;;;;;5061193;28;20529;-64
2021/05/24 15:11:19;;;;;;;2.57;1.00;;;;;;;;;;5061374;28;20191;-64
2021/05/24 15:13:46;;;;;;;2.63;0.73;;;;;;;;;;5058810;28;20191;-64
2021/05/24 15:16:12;;;;;;;3.87;2.13;;;;;;;;;;5061019;28;20170;-64
2021/05/24 15:18:39;;;;;;;2.00;1.90;;;;;;;;;;5060947;28;20210;-64
2021/05/24 15:21:05;;;;;;;0.00;0.00;;;;;;;;;;5061352;28;20266;-65
2021/05/24 15:23:32;;;;;;;0.47;0.17;;;;;;;;;;5061005;28;20252;-64
2021/05/24 15:25:59;;;;;;;4.53;1.43;;;;;;;;;;5060839;28;20660;-64
2021/05/24 15:28:26;;;;;;;0.40;0.40;;;;;;;;;;5060963;28;20175;-64
2021/05/24 15:30:55;;;;;;;5.43;1.70;;;;;;;;;;5061013;28;20176;-64
2021/05/24 15:33:21;;;;;;;0.17;0.17;;;;;;;;;;5060689;28;20175;-65
2021/05/24 15:35:48;;;;;;;0.00;0.00;;;;;;;;;;5061101;28;20713;-65
2021/05/24 15:38:16;;;;;;;0.20;0.20;;;;;;;;;;5061173;28;20259;-65
2021/05/24 15:40:43;;;;;;;0.47;0.40;;;;;;;;;;5060747;28;20192;-66
2021/05/24 15:43:11;;;;;;;17.73;2.23;;;;;;;;;;5060768;28;20188;-65
2021/05/24 15:45:37;;;;;;;4.13;1.60;;;;;;;;;;5060784;28;20168;-65
2021/05/24 15:48:04;;;;;;;4.17;1.43;;;;;;;;;;5060856;28;20188;-65
2021/05/24 15:50:33;;;;;;;1.90;1.70;;;;;;;;;;5060337;28;20232;-65
2021/05/24 15:52:59;;;;;;;2.67;0.83;;;;;;;;;;5060620;28;20192;-65
2021/05/24 15:55:26;;;;;;;14.97;1.40;;;;;;;;;;5058230;28;20206;-65
2021/05/24 15:57:53;;;;;;;2.10;0.30;;;;;;;;;;5060619;28;20653;-65
2021/05/24 16:00:22;;;;;;;3.53;0.70;;;;;;;;;;5065759;28;20593;-66
2021/05/24 16:02:49;;;;;;;4.90;1.70;;;;;;;;;;5058428;28;20237;-66
2021/05/24 16:05:15;;;;;;;4.67;1.67;;;;;;;;;;5060738;28;20603;-65
2021/05/24 16:07:42;;;;;;;1.63;1.23;;;;;;;;;;5060498;28;20176;-66
2021/05/24 16:10:09;;;;;;;0.00;0.00;;;;;;;;;;5058448;28;20183;-66
2021/05/24 16:12:36;;;;;;;1.40;0.30;;;;;;;;;;5062243;28;20180;-66
2021/05/24 16:15:03;;;;;;;4.27;1.33;;;;;;;;;;5060387;28;20283;-65
2021/05/24 16:17:30;;;;;;;0.30;0.27;;;;;;;;;;5060303;28;20271;-66
2021/05/24 16:19:56;;;;;;;3.60;1.30;;;;;;;;;;5060097;28;20191;-65
2021/05/24 16:22:23;;;;;;;0.07;0.07;;;;;;;;;;5060286;28;20282;-65
2021/05/24 16:27:22;;;;;;;2.50;1.23;;;;;;;;;;5060154;28;20193;-65
2021/05/24 16:29:48;;;;;;;4.27;1.13;;;;;;;;;;5057664;28;20188;-65
2021/05/24 16:32:15;;;;;;;0.20;0.20;;;;;;;;;;5060345;28;20634;-66
2021/05/24 16:34:42;;;;;;;0.03;0.03;;;;;;;;;;5062367;28;20170;-66
2021/05/24 16:37:08;;;;;;;6.97;2.77;;;;;;;;;;5057720;28;20181;-66
2021/05/24 16:39:35;;;;;;;8.70;1.50;;;;;;;;;;5060297;28;20205;-66
2021/05/24 16:42:03;;;;;;;0.30;0.30;;;;;;;;;;5061028;28;20593;-66
2021/05/24 16:44:29;;;;;;;0.03;0.03;;;;;;;;;;5063573;28;20183;-66
2021/05/24 16:46:56;;;;;;;0.40;0.33;;;;;;;;;;5061806;28;20196;-65
2021/05/24 16:49:23;;;;;;;0.30;0.30;;;;;;;;;;5063960;28;20208;-65
2021/05/24 16:51:49;;;;;;;0.40;0.40;;;;;;;;;;5067635;28;20187;-65
2021/05/24 16:54:16;;;;;;;0.33;0.23;;;;;;;;;;5063716;28;20189;-66
2021/05/24 16:56:45;;;;;;;7.17;0.93;;;;;;;;;;5063835;28;20186;-66
2021/05/24 16:59:12;;;;;;;1.13;0.47;;;;;;;;;;5061828;28;20178;-66
2021/05/24 17:01:39;;;;;;;0.83;0.67;;;;;;;;;;5063683;28;20229;-65
2021/05/24 17:04:06;;;;;;;0.00;0.00;;;;;;;;;;5066390;28;20178;-65
2021/05/24 17:06:33;;;;;;;1.33;0.10;;;;;;;;;;5063721;28;21097;-66
2021/05/24 17:09:00;;;;;;;6.80;1.23;;;;;;;;;;5064096;28;20237;-66
2021/05/24 17:11:27;;;;;;;9.70;1.30;;;;;;;;;;5063355;28;20176;-65
2021/05/24 17:13:55;;;;;;;2.10;0.63;;;;;;;;;;5063487;28;20191;-66
2021/05/24 17:16:27;;;;;;;0.10;0.10;;;;;;;;;;5063657;28;20271;-65
2021/05/24 17:18:56;;;;;;;0.47;0.47;;;;;;;;;;5061491;28;20175;-66
2021/05/24 17:21:26;;;;;;;1.90;0.57;;;;;;;;;;5063417;28;20198;-66
2021/05/24 17:24:02;;;;;;;4.50;1.27;;;;;;;;;;5061155;28;20174;-66
2021/05/24 17:26:29;;;;;;;1.47;0.27;;;;;;;;;;5063541;28;20212;-65
2021/05/24 17:28:56;;;;;;;2.07;0.37;;;;;;;;;;5063245;28;20178;-66
2021/05/24 17:31:22;;;;;;;1.90;0.43;;;;;;;;;;5063331;28;20187;-66
2021/05/24 17:33:49;;;;;;;8.00;1.93;;;;;;;;;;5063264;28;20178;-66
2021/05/24 17:36:16;;;;;;;5.20;0.67;;;;;;;;;;5063618;28;20181;-66
2021/05/24 17:38:42;;;;;;;1.33;0.53;;;;;;;;;;5063341;28;20273;-65
2021/05/24 17:41:09;;;;;;;0.67;0.27;;;;;;;;;;5062966;28;20893;-65
2021/05/24 17:43:36;;;;;;;0.87;0.67;;;;;;;;;;5063068;28;20631;-66
2021/05/24 17:46:03;;;;;;;5.13;0.40;;;;;;;;;;5062895;28;20269;-65
2021/05/24 17:48:30;;;;;;;10.17;2.37;;;;;;;;;;5062783;28;20227;-66
2021/05/24 17:51:16;;;;;;;0.10;0.10;;;;;;;;;;5062336;28;20235;-66
2021/05/24 17:53:42;;;;;;;1.17;0.30;;;;;;;;;;5061715;28;20186;-66
2021/05/24 17:56:09;;;;;;;2.63;0.73;;;;;;;;;;5062705;28;20283;-66
2021/05/24 17:58:39;;;;;;;0.70;0.40;;;;;;;;;;5062491;28;20179;-66
2021/05/24 18:01:06;;;;;;;1.13;0.63;;;;;;;;;;5062516;28;20261;-66
2021/05/24 18:03:32;;;;;;;1.47;0.70;;;;;;;;;;5062865;28;20182;-66
2021/05/24 18:05:59;;;;;;;4.60;0.30;;;;;;;;;;5062346;28;20188;-66
2021/05/24 18:08:26;;;;;;;0.10;0.00;;;;;;;;;;5065099;28;20909;-66
2021/05/24 18:10:53;;;;;;;0.67;0.43;;;;;;;;;;5059480;28;20217;-65
2021/05/24 18:13:19;;;;;;;0.53;0.33;;;;;;;;;;5065555;28;20193;-65
2021/05/24 18:15:46;;;;;;;0.67;0.47;;;;;;;;;;5045082;28;20186;-65
2021/05/24 18:18:17;;;;;;;2.03;0.93;;;;;;;;;;5059583;28;21140;-65
2021/05/24 18:20:45;;;;;;;0.53;0.53;;;;;;;;;;5062030;28;20204;-65
2021/05/24 18:23:12;;;;;;;0.43;0.43;;;;;;;;;;5062147;28;20615;-66
2021/05/24 18:25:40;;;;;;;2.40;0.93;;;;;;;;;;5062150;28;20409;-65
2021/05/24 18:28:07;;;;;;;3.43;0.43;;;;;;;;;;5059622;28;20192;-65
2021/05/24 18:30:34;;;;;;;0.80;0.27;;;;;;;;;;5062265;28;20185;-66
2021/05/24 18:33:02;;;;;;;2.00;1.23;;;;;;;;;;5062257;28;20185;-66
2021/05/24 18:35:32;;;;;;;0.20;0.20;;;;;;;;;;5064562;28;20550;-66
2021/05/24 18:38:06;;;;;;;0.87;0.63;;;;;;;;;;5063979;28;20654;-66
2021/05/24 18:40:33;;;;;;;0.20;0.17;;;;;;;;;;5062576;28;20311;-65
2021/05/24 18:43:00;;;;;;;4.10;0.60;;;;;;;;;;5065222;28;20899;-65
2021/05/24 18:45:27;;;;;;;2.73;0.63;;;;;;;;;;5062050;28;20200;-65
2021/05/24 18:47:53;;;;;;;1.03;0.60;;;;;;;;;;5062230;28;20178;-65
2021/05/24 18:50:20;;;;;;;0.80;0.50;;;;;;;;;;5061917;28;20516;-66
2021/05/24 18:52:48;;;;;;;0.13;0.00;;;;;;;;;;5061852;28;20511;-66
2021/05/24 18:55:15;;;;;;;0.00;0.00;;;;;;;;;;5058983;28;20175;-66
2021/05/24 18:57:41;;;;;;;5.43;0.57;;;;;;;;;;5061710;28;20190;-66
2021/05/24 19:00:10;;;;;;;0.10;0.10;;;;;;;;;;5061144;28;20223;-65
2021/05/24 19:02:46;;;;;;;2.10;0.67;;;;;;;;;;5059054;28;20181;-66
2021/05/24 19:07:58;;;;;;;0.10;0.10;;;;;;;;;;5061374;28;21300;-65
2021/05/24 19:10:24;;;;;;;5.83;2.43;;;;;;;;;;5064275;28;20269;-65
2021/05/24 19:12:51;;;;;;;11.90;0.30;;;;;;;;;;5061104;28;20188;-65
2021/05/24 19:15:18;;;;;;;3.40;1.00;;;;;;;;;;5061300;28;20289;-66
2021/05/24 19:17:44;;;;;;;0.10;0.10;;;;;;;;;;5061049;28;20276;-66
2021/05/24 19:20:11;;;;;;;0.10;0.10;;;;;;;;;;5060897;28;20192;-66
2021/05/24 19:22:38;;;;;;;0.00;0.00;;;;;;;;;;5061414;28;20178;-66
2021/05/24 19:25:07;;;;;;;1.90;1.20;;;;;;;;;;5061269;28;20276;-66
2021/05/24 19:27:33;;;;;;;0.40;0.33;;;;;;;;;;5060863;28;20205;-65
2021/05/24 19:30:00;;;;;;;7.23;1.00;;;;;;;;;;5060972;28;20182;-65
2021/05/24 19:32:27;;;;;;;5.50;0.53;;;;;;;;;;5061291;28;20180;-65
2021/05/24 19:34:53;;;;;;;0.00;0.00;;;;;;;;;;5061102;28;20819;-66
2021/05/24 19:37:20;;;;;;;3.00;1.80;;;;;;;;;;5060991;28;20196;-65
2021/05/24 19:39:46;;;;;;;0.00;0.00;;;;;;;;;;5061153;28;20234;-66
2021/05/24 19:42:13;;;;;;;0.00;0.00;;;;;;;;;;5076229;28;20201;-65
2021/05/24 19:44:40;;;;;;;0.70;0.40;;;;;;;;;;5060941;28;20526;-65
2021/05/24 20:25:21;;;;;;;0.30;0.30;;;;;;;;;;5065381;28;20262;-66
2021/05/24 20:27:48;;;;;;;1.80;1.27;;;;;;;;;;5064759;28;20284;-65
2021/05/24 20:30:15;;;;;;;0.27;0.13;;;;;;;;;;5062154;28;20183;-62
2021/05/24 20:32:41;;;;;;;0.00;0.00;;;;;;;;;;5066057;28;20172;-63
2021/05/24 20:35:08;;;;;;;0.20;0.20;;;;;;;;;;5064347;28;20215;-62
2021/05/24 20:37:35;;;;;;;2.83;0.83;;;;;;;;;;5064815;28;20196;-63
2021/05/24 20:40:02;;;;;;;11.57;1.73;;;;;;;;;;5064123;28;20227;-63
2021/05/24 20:42:28;;;;;;;1.43;0.73;;;;;;;;;;5065006;28;20866;-63
2021/05/24 20:44:55;;;;;;;3.57;1.40;;;;;;;;;;5065893;28;20291;-62
2021/05/24 20:47:21;;;;;;;0.77;0.70;;;;;;;;;;5064046;28;20185;-63
2021/05/24 20:49:48;;;;;;;2.00;0.30;;;;;;;;;;5063994;28;20190;-63
2021/05/24 20:52:15;;;;;;;2.87;0.37;;;;;;;;;;5066862;28;20310;-62
2021/05/24 20:54:41;;;;;;;1.33;1.07;;;;;;;;;;5061435;28;20493;-63
2021/05/24 20:57:10;;;;;;;0.63;0.20;;;;;;;;;;5060976;28;20302;-62
2021/05/24 20:59:36;;;;;;;0.57;0.57;;;;;;;;;;5063576;28;20186;-63
2021/05/24 21:02:03;;;;;;;0.00;0.00;;;;;;;;;;5063427;28;21078;-62
2021/05/24 21:04:30;;;;;;;2.63;1.90;;;;;;;;;;5063700;28;20186;-62
2021/05/24 21:06:56;;;;;;;3.00;0.80;;;;;;;;;;5063338;28;20195;-63
2021/05/24 21:09:23;;;;;;;2.23;0.30;;;;;;;;;;5063473;28;20193;-63
2021/05/24 21:11:50;;;;;;;1.87;1.37;;;;;;;;;;5063796;28;20255;-63
2021/05/24 21:14:17;;;;;;;0.50;0.40;;;;;;;;;;5063226;28;20192;-62
2021/05/24 21:16:43;;;;;;;0.57;0.40;;;;;;;;;;5065296;28;20183;-62
2021/05/24 21:19:10;;;;;;;1.03;0.57;;;;;;;;;;5062782;28;20199;-63
2021/05/24 21:21:36;;;;;;;0.00;0.00;;;;;;;;;;5063280;28;20251;-62
2021/05/24 21:24:03;;;;;;;1.53;0.97;;;;;;;;;;5059782;28;20180;-62
2021/05/24 21:26:29;;;;;;;0.80;0.77;;;;;;;;;;5058011;28;20211;-62
2021/05/24 21:28:56;;;;;;;0.00;0.00;;;;;;;;;;5058448;28;20202;-62
2021/05/24 21:31:23;;;;;;;0.07;0.07;;;;;;;;;;5056327;28;20329;-62
2021/05/24 21:36:34;;;;;;;0.10;0.10;;;;;;;;;;5063004;28;20290;-62
2021/05/24 21:39:01;;;;;;;0.03;0.03;;;;;;;;;;5065092;28;20184;-62
2021/05/24 21:41:28;;;;;;;0.30;0.30;;;;;;;;;;5062597;28;20199;-62
2021/05/24 21:43:54;;;;;;;0.00;0.00;;;;;;;;;;5062293;28;20184;-62
2021/05/24 21:46:21;;;;;;;0.00;0.00;;;;;;;;;;5061370;28;20613;-62
2021/05/24 21:48:48;;;;;;;1.83;0.70;;;;;;;;;;5061816;28;20188;-62
2021/05/24 21:51:14;;;;;;;0.00;0.00;;;;;;;;;;5062203;28;20195;-62
2021/05/24 21:53:41;;;;;;;1.23;0.47;;;;;;;;;;5062278;28;20186;-61
2021/05/24 21:56:08;;;;;;;0.10;0.10;;;;;;;;;;5062675;28;20191;-61
2021/05/24 21:58:35;;;;;;;2.47;1.03;;;;;;;;;;5062452;28;21000;-61
2021/05/24 22:01:02;;;;;;;6.60;5.93;;;;;;;;;;5062351;28;20227;-61
2021/05/24 22:03:29;;;;;;;0.10;0.10;;;;;;;;;;5062017;28;20714;-61
2021/05/24 22:05:55;;;;;;;0.00;0.00;;;;;;;;;;5061984;28;20186;-62
2021/05/24 22:08:22;;;;;;;0.60;0.60;;;;;;;;;;5061417;28;20195;-62
2021/05/24 22:10:48;;;;;;;27.07;0.83;;;;;;;;;;5062192;28;20777;-62
2021/05/24 22:13:15;;;;;;;0.00;0.00;;;;;;;;;;5060888;28;20187;-63
2021/05/24 22:15:42;;;;;;;0.00;0.00;;;;;;;;;;5061772;28;20237;-61
2021/05/24 22:18:09;;;;;;;0.00;0.00;;;;;;;;;;5059925;28;20205;-62
2021/05/24 22:20:39;;;;;;;8.00;1.13;;;;;;;;;;5060190;28;20203;-62
2021/05/24 22:23:06;;;;;;;0.20;0.10;;;;;;;;;;5058661;28;20176;-63
2021/05/24 22:25:32;;;;;;;0.20;0.20;;;;;;;;;;5060818;28;20210;-62
2021/05/24 22:27:59;;;;;;;0.00;0.00;;;;;;;;;;5060433;28;20936;-62
2021/05/24 22:30:27;;;;;;;6.53;0.93;;;;;;;;;;5062807;28;20190;-63
2021/05/24 22:32:54;;;;;;;0.10;0.10;;;;;;;;;;5063674;28;20181;-63
2021/05/24 22:35:21;;;;;;;0.77;0.50;;;;;;;;;;5061741;28;20195;-62
2021/05/24 22:37:48;;;;;;;0.53;0.53;;;;;;;;;;5061841;28;20781;-62
2021/05/24 22:40:15;;;;;;;1.97;0.97;;;;;;;;;;5061291;28;20202;-63
2021/05/24 22:42:42;;;;;;;0.37;0.33;;;;;;;;;;5059317;28;20640;-61
2021/05/24 22:45:10;;;;;;;1.70;0.77;;;;;;;;;;5057497;28;20195;-62
2021/05/24 22:47:39;;;;;;;6.70;0.73;;;;;;;;;;5057625;28;20198;-62
2021/05/24 22:50:08;;;;;;;0.73;0.40;;;;;;;;;;5057208;28;20696;-62
2021/05/24 22:52:36;;;;;;;0.43;0.43;;;;;;;;;;5063183;28;20210;-62
2021/05/24 22:55:03;;;;;;;10.20;2.00;;;;;;;;;;5057021;28;20194;-62
2021/05/24 22:57:29;;;;;;;0.00;0.00;;;;;;;;;;5058252;28;20214;-62
2021/05/24 22:59:58;;;;;;;0.97;0.47;;;;;;;;;;5059525;28;20198;-62
2021/05/24 23:02:25;;;;;;;0.00;0.00;;;;;;;;;;5059105;28;20234;-62
2021/05/24 23:04:53;;;;;;;0.00;0.00;;;;;;;;;;5057545;28;20179;-62
2021/05/24 23:07:20;;;;;;;0.23;0.23;;;;;;;;;;5055798;28;20306;-62
2021/05/24 23:09:46;;;;;;;0.33;0.33;;;;;;;;;;5059796;28;20213;-63
2021/05/24 23:12:13;;;;;;;0.57;0.57;;;;;;;;;;5058379;28;20203;-63
2021/05/24 23:14:39;;;;;;;0.00;0.00;;;;;;;;;;5060805;28;20723;-62
2021/05/24 23:17:06;;;;;;;0.00;0.00;;;;;;;;;;5058022;28;20191;-62
2021/05/24 23:19:33;;;;;;;0.23;0.20;;;;;;;;;;5055983;28;20187;-65
2021/05/24 23:21:59;;;;;;;0.00;0.00;;;;;;;;;;5056498;28;20215;-65
2021/05/24 23:24:26;;;;;;;3.20;0.57;;;;;;;;;;5057978;28;20187;-64
2021/05/24 23:26:52;;;;;;;0.30;0.20;;;;;;;;;;5058092;28;20190;-64
2021/05/24 23:29:19;;;;;;;0.77;0.77;;;;;;;;;;5058680;28;20190;-64
2021/05/24 23:31:46;;;;;;;0.00;0.00;;;;;;;;;;5059945;28;20241;-65
2021/05/24 23:34:14;;;;;;;1.03;0.27;;;;;;;;;;5061348;28;20214;-64
2021/05/24 23:36:40;;;;;;;11.67;6.63;;;;;;;;;;5058214;28;20666;-64
2021/05/24 23:39:07;;;;;;;1.03;0.27;;;;;;;;;;5054942;28;20202;-65
2021/05/24 23:41:33;;;;;;;0.50;0.23;;;;;;;;;;5071403;28;20279;-65
2021/05/24 23:44:01;;;;;;;1.07;0.63;;;;;;;;;;5062338;28;20205;-64
2021/05/24 23:46:28;;;;;;;0.40;0.40;;;;;;;;;;5056584;28;20179;-65
2021/05/24 23:48:54;;;;;;;0.90;0.90;;;;;;;;;;5055794;28;20187;-65
2021/05/24 23:51:21;;;;;;;2.97;0.73;;;;;;;;;;5056803;28;20213;-65
2021/05/24 23:53:48;;;;;;;18.80;3.70;;;;;;;;;;5054163;28;20309;-63
2021/05/24 23:56:14;;;;;;;0.00;0.00;;;;;;;;;;5060692;28;20278;-63
2021/05/24 23:58:41;;;;;;;8.80;2.00;;;;;;;;;;5057200;28;20201;-63
